Terminal Aerodrome Forecast
Issued by NWS

Home | Current Version | Previous Version | Text Only | Print | Product List | Glossary On
Versions: 1 2 3 4 5 6 7 8 9 10 11 12 13 14 15 16 17 18 19
711
FTUS43 KLSX 270849 AAA
TAFUIN
TAF AMD
KUIN 270849Z 2709/2806 VRB03KT P6SM FEW200
      TEMPO 2711/2712 4SM BR
     FM271300 11004KT P6SM FEW250
     FM271900 17006KT P6SM FEW250=

USA.gov is the U.S. government's official web portal to all federal, state and local government web resources and services.